Time;durP1;ratioP1;P1;durP2;ratioP2;P2;SDS_P1;SDS_P2;PMS_P1;PMS_P2;Temp;Humidity;BMP_temperature;BMP_pressure;BME280_temperature;BME280_humidity;BME280_pressure;Samples;Min_cycle;Max_cycle;Signal;HPM_P1;HPM_P2
2022/06/10 07:28:57;;;;;;;23.80;14.40;;;;;;;18.04;70.31;98976.13;105064;1285;95415;-70
2022/06/10 07:31:25;;;;;;;24.70;16.20;;;;;;;18.09;70.36;98985.41;105198;1285;96622;-70
2022/06/10 07:33:53;;;;;;;24.00;15.10;;;;;;;18.12;69.98;98988.56;105051;1285;111423;-70
2022/06/10 07:36:21;;;;;;;24.80;15.20;;;;;;;18.13;70.29;98984.15;105049;1285;97922;-70
2022/06/10 07:38:49;;;;;;;23.30;14.80;;;;;;;18.16;70.32;98986.50;105094;1285;107554;-70
2022/06/10 07:44:09;;;;;;;25.60;16.20;;;;;;;18.26;70.29;98988.46;105197;1285;96433;-67
2022/06/10 07:46:37;;;;;;;23.40;15.00;;;;;;;18.30;70.25;98991.81;105108;1285;112867;-71
2022/06/10 07:49:06;;;;;;;23.10;15.30;;;;;;;18.33;70.26;98991.39;105056;1285;95297;-71
2022/06/10 07:51:34;;;;;;;25.20;16.70;;;;;;;18.35;70.20;98990.94;105119;1285;107743;-70
2022/06/10 07:54:02;;;;;;;25.30;16.40;;;;;;;18.36;70.24;98994.81;105212;1285;99853;-70
2022/06/10 07:56:30;;;;;;;23.50;12.60;;;;;;;18.31;70.06;98993.13;105040;1285;97968;-70
2022/06/10 07:58:59;;;;;;;25.60;14.90;;;;;;;18.29;70.10;98998.23;105111;1285;111554;-71
2022/06/10 08:01:29;;;;;;;20.80;12.40;;;;;;;18.32;70.22;98999.18;105144;1285;98006;-71
2022/06/10 08:03:57;;;;;;;22.30;13.20;;;;;;;18.36;70.25;99002.15;105168;1285;107759;-69
2022/06/10 08:06:29;;;;;;;21.20;13.00;;;;;;;18.39;70.17;99007.35;105156;1285;98015;-70
2022/06/10 08:08:57;;;;;;;20.70;12.60;;;;;;;18.42;70.05;98999.91;105003;1287;98011;-70
2022/06/10 08:11:25;;;;;;;23.50;11.80;;;;;;;18.46;70.19;99006.80;105199;1285;111451;-71
2022/06/10 08:13:53;;;;;;;28.50;12.00;;;;;;;18.47;70.05;99009.95;104965;1285;97932;-70
2022/06/10 08:16:23;;;;;;;20.50;11.20;;;;;;;18.48;70.02;99014.35;105055;1285;107698;-69
2022/06/10 08:18:54;;;;;;;20.30;11.50;;;;;;;18.52;70.33;99014.91;104839;1285;97878;-71
2022/06/10 08:24:10;;;;;;;20.40;10.90;;;;;;;18.61;70.31;99021.75;105147;1285;112214;-71
2022/06/10 08:26:38;;;;;;;20.00;10.50;;;;;;;18.67;70.33;99023.45;105172;1285;97158;-70
2022/06/10 08:29:07;;;;;;;18.70;9.90;;;;;;;18.71;70.20;99025.35;104965;1287;108909;-69
2022/06/10 08:31:35;;;;;;;18.70;10.30;;;;;;;18.75;70.51;99031.23;104848;1285;99273;-70
2022/06/10 08:34:05;;;;;;;21.10;10.40;;;;;;;18.80;70.38;99029.99;105107;1285;96010;-71
2022/06/10 08:36:33;;;;;;;18.50;10.50;;;;;;;18.86;70.28;99031.70;105064;1285;110472;-70
2022/06/10 08:39:01;;;;;;;19.90;10.30;;;;;;;18.92;70.39;99032.73;105227;1285;97978;-71
2022/06/10 08:41:57;;;;;;;20.20;10.70;;;;;;;18.98;70.42;99034.73;105132;1285;107653;-70
2022/06/10 08:44:53;;;;;;;22.30;12.40;;;;;;;19.08;70.40;99038.87;105032;1285;97878;-71
2022/06/10 08:47:41;;;;;;;19.30;10.70;;;;;;;19.13;70.30;99036.67;105023;1285;97977;-70
2022/06/10 08:50:23;;;;;;;20.60;11.80;;;;;;;19.19;70.37;99042.56;104995;1285;112014;-70
2022/06/10 08:53:35;;;;;;;20.00;10.60;;;;;;;19.27;70.33;99043.69;104984;1285;98515;-70
2022/06/10 08:56:22;;;;;;;20.90;12.10;;;;;;;19.36;70.20;99052.92;103937;1296;106168;-70
2022/06/10 08:59:01;;;;;;;20.80;12.40;;;;;;;19.35;70.24;99054.24;105075;1285;98095;-71
2022/06/10 09:01:38;;;;;;;21.20;11.70;;;;;;;19.38;70.16;99053.41;105144;1285;98081;-71
2022/06/10 09:04:24;;;;;;;22.00;12.10;;;;;;;19.43;70.20;99057.66;104942;1285;111253;-70
2022/06/10 09:07:02;;;;;;;20.20;11.30;;;;;;;19.45;69.98;99059.05;104885;1287;97879;-70
2022/06/10 09:09:36;;;;;;;18.90;11.30;;;;;;;19.54;70.17;99065.52;104915;1285;107581;-70
2022/06/10 09:12:21;;;;;;;19.70;11.60;;;;;;;19.67;70.10;99061.02;104910;1285;97962;-69
2022/06/10 09:14:54;;;;;;;25.90;12.50;;;;;;;19.79;70.02;99062.41;104660;1285;97882;-68
2022/06/10 09:17:30;;;;;;;20.90;11.50;;;;;;;19.89;70.04;99068.84;104773;1284;111408;-68
2022/06/10 09:20:16;;;;;;;20.60;11.70;;;;;;;19.95;69.83;99068.63;104865;1285;96471;-68
2022/06/10 09:22:52;;;;;;;20.70;12.00;;;;;;;19.92;69.92;99072.34;104950;1285;108749;-70
2022/06/10 09:25:31;;;;;;;21.60;11.20;;;;;;;19.93;69.83;99072.20;104857;1287;97924;-68
2022/06/10 09:28:01;;;;;;;27.60;10.90;;;;;;;20.11;69.91;99066.41;104835;1285;97910;-69
2022/06/10 09:30:56;;;;;;;23.80;11.30;;;;;;;20.31;69.84;99064.86;104893;1285;111322;-69
2022/06/10 09:33:41;;;;;;;16.80;8.70;;;;;;;20.35;69.92;99073.46;106662;1285;96496;-67
2022/06/10 09:36:20;;;;;;;19.50;10.40;;;;;;;20.43;70.00;99070.78;106748;1284;108405;-69
2022/06/10 09:39:00;;;;;;;20.00;9.90;;;;;;;20.51;69.89;99072.20;106726;1284;96100;-68
2022/06/10 09:42:16;;;;;;;21.40;10.30;;;;;;;20.53;69.63;99073.17;106481;1285;96222;-67
2022/06/10 09:45:07;;;;;;;19.40;10.70;;;;;;;20.51;69.51;99073.08;105670;1293;111111;-68
2022/06/10 09:47:56;;;;;;;20.90;10.40;;;;;;;20.48;69.44;99078.30;106503;1287;96196;-68
2022/06/10 09:50:41;;;;;;;18.20;9.60;;;;;;;20.60;69.50;99076.54;106737;1284;107753;-67
2022/06/10 09:53:24;;;;;;;16.10;8.90;;;;;;;21.05;69.36;99072.49;106734;1285;96335;-67
2022/06/10 09:56:13;;;;;;;15.40;8.40;;;;;;;21.26;69.33;99072.54;106195;1287;96449;-67
2022/06/10 09:58:51;;;;;;;17.20;8.10;;;;;;;21.36;69.18;99068.25;104965;1285;112429;-69
2022/06/10 10:01:25;;;;;;;17.50;9.10;;;;;;;21.45;69.34;99074.86;104999;1285;97962;-67
2022/06/10 10:04:06;;;;;;;15.70;7.60;;;;;;;21.48;69.34;99073.62;104849;1286;108615;-69
2022/06/10 10:07:13;;;;;;;19.00;9.60;;;;;;;21.45;69.06;99075.27;106335;1284;96400;-69
2022/06/10 10:09:56;;;;;;;17.50;8.40;;;;;;;21.36;69.16;99079.36;105130;1285;97908;-68
2022/06/10 10:12:50;;;;;;;13.10;7.70;;;;;;;21.34;69.10;99077.84;104991;1285;111438;-68
2022/06/10 10:15:59;;;;;;;16.60;8.50;;;;;;;21.33;68.96;99077.58;105121;1285;97832;-69
2022/06/10 10:18:45;;;;;;;19.50;9.00;;;;;;;21.38;69.01;99075.41;104958;1287;108488;-68
2022/06/10 10:21:45;;;;;;;17.10;8.50;;;;;;;21.46;68.91;99078.23;105009;1287;95394;-65
2022/06/10 10:24:21;;;;;;;12.10;7.00;;;;;;;21.52;68.90;99081.52;104609;1285;97982;-69
2022/06/10 10:26:51;;;;;;;18.60;9.50;;;;;;;21.47;68.62;99082.45;105076;1285;111413;-68
2022/06/10 10:29:36;;;;;;;17.90;9.60;;;;;;;21.47;68.65;99083.69;105067;1285;97751;-68
2022/06/10 10:32:19;;;;;;;17.40;9.60;;;;;;;21.48;68.55;99087.48;104929;1285;107775;-69
2022/06/10 10:35:03;;;;;;;19.40;9.00;;;;;;;21.52;68.60;99088.34;105137;1284;95632;-67
2022/06/10 10:37:38;;;;;;;18.60;8.30;;;;;;;21.50;68.54;99092.75;104952;1285;98016;-68
2022/06/10 10:40:20;;;;;;;17.70;8.60;;;;;;;21.55;68.41;99089.02;105164;1285;112019;-69
2022/06/10 10:42:53;;;;;;;17.10;8.60;;;;;;;21.61;68.39;99090.53;105167;1285;98636;-68
2022/06/10 10:45:32;;;;;;;20.10;9.40;;;;;;;21.67;68.05;99095.08;104882;1285;109369;-68
2022/06/10 10:48:11;;;;;;;20.90;10.60;;;;;;;21.70;68.11;99097.77;105021;1285;98011;-68
2022/06/10 10:50:47;;;;;;;19.40;10.80;;;;;;;21.69;68.04;99095.14;105110;1285;97914;-70
2022/06/10 10:53:36;;;;;;;18.70;9.90;;;;;;;21.66;67.98;99098.25;104985;1285;111222;-69
2022/06/10 10:56:07;;;;;;;18.20;10.10;;;;;;;21.62;67.82;99096.34;104959;1285;96249;-69
2022/06/10 10:58:40;;;;;;;17.40;9.50;;;;;;;21.57;67.72;99095.80;105063;1285;108350;-70
2022/06/10 11:03:59;;;;;;;18.20;10.00;;;;;;;21.53;67.92;99086.91;104880;1285;97898;-69
2022/06/10 11:06:32;;;;;;;20.10;11.40;;;;;;;21.55;67.84;99086.15;104903;1285;111081;-67
2022/06/10 11:09:23;;;;;;;17.20;9.00;;;;;;;21.55;67.89;99091.02;105020;1285;97913;-67
2022/06/10 11:11:53;;;;;;;19.40;9.70;;;;;;;21.56;67.80;99094.33;104908;1286;107784;-67
2022/06/10 11:14:21;;;;;;;18.40;10.30;;;;;;;21.58;67.98;99097.23;104712;1285;98046;-66
2022/06/10 11:17:09;;;;;;;20.70;12.20;;;;;;;21.62;67.69;99093.83;105005;1285;95300;-66
2022/06/10 11:19:43;;;;;;;20.30;12.30;;;;;;;21.57;67.56;99092.95;104964;1285;112075;-67
2022/06/10 11:22:28;;;;;;;;;;;;;;;21.52;67.50;99092.13;105077;1285;96425;-69
2022/06/10 11:25:27;;;;;;;22.20;11.60;;;;;;;21.47;67.53;99093.65;104985;1285;108212;-67
2022/06/10 11:28:00;;;;;;;20.80;11.50;;;;;;;21.40;67.17;99087.69;105151;1285;98407;-69
2022/06/10 11:30:42;;;;;;;20.30;11.80;;;;;;;21.37;67.55;99088.33;105139;1285;97896;-69
2022/06/10 11:33:32;;;;;;;21.20;11.70;;;;;;;21.39;67.30;99088.26;105136;1285;111395;-70
2022/06/10 11:36:03;;;;;;;20.50;12.70;;;;;;;21.39;67.25;99080.77;104973;1285;97999;-70
2022/06/10 11:38:34;;;;;;;19.10;10.90;;;;;;;21.38;67.12;99078.75;105002;1285;107314;-69
2022/06/10 11:41:25;;;;;;;19.30;11.00;;;;;;;21.39;67.05;99079.35;104974;1285;97910;-71
2022/06/10 11:44:04;;;;;;;18.80;10.30;;;;;;;21.44;67.02;99073.20;104979;1285;98042;-68
2022/06/10 11:46:53;;;;;;;19.60;11.10;;;;;;;21.51;66.82;99070.89;104748;1285;111380;-68
2022/06/10 11:49:27;;;;;;;19.90;11.30;;;;;;;21.54;66.75;99072.70;104950;1287;97942;-68
2022/06/10 11:52:05;;;;;;;20.10;11.00;;;;;;;21.56;66.87;99072.71;104910;1285;108339;-67
2022/06/10 11:54:52;;;;;;;19.90;11.20;;;;;;;21.59;66.91;99071.35;104991;1285;97980;-68
2022/06/10 12:00:30;;;;;;;25.10;12.90;;;;;;;21.65;66.81;99063.92;104803;1285;112090;-69
2022/06/10 12:03:01;;;;;;;31.50;13.30;;;;;;;21.73;66.76;99061.73;105090;1285;98062;-67
2022/06/10 12:05:34;;;;;;;24.10;13.70;;;;;;;21.84;66.72;99061.34;104822;1287;109739;-68
2022/06/10 12:08:27;;;;;;;23.30;13.40;;;;;;;21.98;66.71;99065.05;104770;1285;97985;-69
2022/06/10 12:11:01;;;;;;;23.60;14.60;;;;;;;22.11;66.53;99055.52;104993;1285;97962;-68
2022/06/10 12:13:37;;;;;;;20.70;13.40;;;;;;;22.17;66.66;99060.91;105014;1285;111934;-70
2022/06/10 12:16:09;;;;;;;22.90;13.20;;;;;;;22.25;66.65;99054.05;104953;1285;97987;-67
2022/06/10 12:18:48;;;;;;;22.10;13.20;;;;;;;22.32;66.34;99054.64;104963;1285;106952;-67
2022/06/10 12:21:21;;;;;;;23.50;14.20;;;;;;;22.36;66.52;99054.35;104923;1285;96496;-68
2022/06/10 12:23:50;;;;;;;21.20;12.30;;;;;;;22.39;66.40;99048.11;104645;1285;96550;-71
2022/06/10 12:27:02;;;;;;;21.70;13.40;;;;;;;22.40;66.12;99047.83;104728;1285;111327;-70
2022/06/10 12:29:52;;;;;;;22.10;11.60;;;;;;;22.47;66.22;99048.52;104932;1285;97982;-72
2022/06/10 12:32:32;;;;;;;24.50;14.20;;;;;;;22.53;66.22;99045.35;104862;1285;107764;-69
2022/06/10 12:35:32;;;;;;;23.40;12.90;;;;;;;22.57;65.98;99043.23;104931;1285;97930;-69
2022/06/10 12:38:22;;;;;;;22.20;12.30;;;;;;;22.63;65.91;99042.91;105030;1285;98000;-69
2022/06/10 12:41:15;;;;;;;20.10;12.20;;;;;;;22.70;65.77;99041.16;104879;1287;111381;-68
2022/06/10 12:43:56;;;;;;;22.30;12.00;;;;;;;22.78;65.77;99044.38;105103;1285;95302;-69
2022/06/10 12:46:39;;;;;;;20.50;12.20;;;;;;;22.87;65.88;99045.70;105068;1285;108346;-69
2022/06/10 12:49:19;;;;;;;23.20;13.00;;;;;;;22.95;65.64;99045.34;105126;1285;98103;-69
2022/06/10 12:52:19;;;;;;;21.10;12.00;;;;;;;22.93;65.41;99043.23;105018;1285;97013;-69
2022/06/10 12:55:06;;;;;;;25.80;12.40;;;;;;;22.92;65.65;99035.41;105122;1285;111586;-69
2022/06/10 12:57:39;;;;;;;21.50;12.20;;;;;;;22.96;65.34;99030.67;105073;1285;98000;-68
2022/06/10 13:00:22;;;;;;;20.50;12.00;;;;;;;23.03;65.32;99027.48;104904;1285;107895;-68
2022/06/10 13:02:53;;;;;;;;;;;;;;;23.11;65.23;99024.80;105186;1285;99045;-68
2022/06/10 13:05:32;;;;;;;21.20;12.20;;;;;;;23.18;65.35;99022.53;105138;1285;97856;-67
2022/06/10 13:08:02;;;;;;;21.20;12.00;;;;;;;23.27;65.11;99016.36;105080;1285;111427;-69
2022/06/10 13:10:30;;;;;;;21.70;11.50;;;;;;;23.26;64.97;99022.38;104978;1287;97764;-68
2022/06/10 13:13:12;;;;;;;19.70;10.80;;;;;;;23.24;64.94;99022.73;105075;1285;108481;-68
2022/06/10 13:16:27;;;;;;;20.30;11.70;;;;;;;23.22;64.71;99018.08;105133;1285;97940;-67
2022/06/10 13:19:00;;;;;;;20.30;10.60;;;;;;;23.31;64.66;99016.95;105106;1285;95335;-68
2022/06/10 13:21:34;;;;;;;19.00;10.60;;;;;;;23.35;64.78;99016.95;104998;1287;111447;-68
2022/06/10 13:24:12;;;;;;;18.00;10.90;;;;;;;23.41;64.52;99017.00;105075;1285;97967;-69
2022/06/10 13:26:40;;;;;;;18.40;9.90;;;;;;;23.46;64.41;99020.23;104983;1285;107716;-68
2022/06/10 13:29:18;;;;;;;24.80;9.80;;;;;;;23.51;64.50;99018.62;105020;1285;97963;-68
2022/06/10 13:31:57;;;;;;;17.70;9.80;;;;;;;23.54;64.29;99018.34;105075;1285;95234;-68
2022/06/10 13:34:34;;;;;;;16.70;9.60;;;;;;;23.56;64.26;99024.70;105089;1285;111389;-69
2022/06/10 13:37:18;;;;;;;18.60;10.00;;;;;;;23.57;64.08;99023.21;105105;1285;98551;-69
2022/06/10 13:39:49;;;;;;;18.00;9.00;;;;;;;23.59;63.96;99020.30;105095;1285;107988;-67
2022/06/10 13:42:30;;;;;;;18.30;9.70;;;;;;;23.65;64.12;99016.46;105042;1285;97947;-68
2022/06/10 13:45:24;;;;;;;18.70;9.20;;;;;;;23.71;63.96;99020.55;104834;1285;97963;-64
2022/06/10 13:48:13;;;;;;;17.60;9.20;;;;;;;23.78;63.78;99012.37;104834;1285;111046;-69
2022/06/10 13:51:15;;;;;;;18.60;9.60;;;;;;;23.86;63.79;99016.13;105028;1285;98032;-70
2022/06/10 13:53:57;;;;;;;17.30;9.90;;;;;;;23.85;63.51;99016.62;105151;1285;108869;-66
2022/06/10 13:56:40;;;;;;;19.80;9.50;;;;;;;23.82;63.46;99018.20;104938;1285;97886;-68
2022/06/10 13:59:29;;;;;;;18.40;9.30;;;;;;;23.83;63.50;99021.77;104741;1285;97909;-68
2022/06/10 14:02:14;;;;;;;16.40;9.70;;;;;;;23.88;63.47;99022.48;104989;1285;111435;-68
2022/06/10 14:04:45;;;;;;;17.30;9.70;;;;;;;23.90;63.32;99024.77;105004;1285;97942;-65
2022/06/10 14:07:29;;;;;;;16.00;8.80;;;;;;;23.89;63.05;99027.67;105005;1285;108396;-67
2022/06/10 14:09:57;;;;;;;15.70;9.30;;;;;;;23.87;63.02;99024.86;105156;1285;97876;-67
2022/06/10 14:12:28;;;;;;;15.30;8.50;;;;;;;23.87;62.97;99024.65;105154;1285;98009;-68
2022/06/10 14:15:15;;;;;;;16.60;9.30;;;;;;;23.83;62.88;99031.52;105085;1285;112023;-71
2022/06/10 14:17:54;;;;;;;14.70;8.30;;;;;;;23.79;62.74;99027.66;104851;1285;98016;-71
2022/06/10 14:20:29;;;;;;;15.70;8.50;;;;;;;23.80;62.86;99028.96;105158;1285;107812;-69
2022/06/10 14:23:09;;;;;;;19.80;9.50;;;;;;;23.85;62.92;99031.41;105147;1285;97952;-65
2022/06/10 14:25:39;;;;;;;17.70;9.10;;;;;;;23.91;62.83;99022.64;105202;1285;95360;-67
2022/06/10 14:28:06;;;;;;;17.40;9.40;;;;;;;23.92;62.68;99029.45;105260;1285;111391;-65
2022/06/10 14:30:37;;;;;;;15.60;8.70;;;;;;;23.93;62.58;99025.28;105187;1285;96275;-68
2022/06/10 14:33:21;;;;;;;15.00;8.90;;;;;;;23.92;62.45;99029.92;105198;1285;108449;-66
2022/06/10 14:36:21;;;;;;;14.70;8.80;;;;;;;23.92;62.38;99029.83;104835;1285;97988;-66
2022/06/10 14:39:20;;;;;;;16.20;9.10;;;;;;;23.91;62.22;99031.20;105020;1285;96434;-69
2022/06/10 14:42:11;;;;;;;18.00;9.20;;;;;;;23.91;62.29;99026.07;105038;1287;112045;-66
2022/06/10 14:44:40;;;;;;;15.20;8.60;;;;;;;23.93;61.98;99027.41;105500;1285;98025;-70
2022/06/10 14:47:18;;;;;;;16.20;9.00;;;;;;;23.95;62.09;99028.35;105077;1285;107947;-68
2022/06/10 14:49:58;;;;;;;17.30;8.30;;;;;;;23.95;61.87;99028.30;105095;1285;98617;-69
2022/06/10 14:52:42;;;;;;;15.30;7.80;;;;;;;23.97;61.92;99033.21;105056;1285;95312;-69
2022/06/10 14:55:37;;;;;;;14.40;7.60;;;;;;;23.98;61.76;99035.70;105049;1285;111301;-69
2022/06/10 14:58:10;;;;;;;15.90;8.20;;;;;;;23.98;61.69;99039.66;104926;1287;97939;-68
2022/06/10 15:00:40;;;;;;;;;;;;;;;23.98;61.66;99040.42;104927;1287;107943;-68
2022/06/10 15:03:14;;;;;;;14.00;7.00;;;;;;;23.92;61.52;99046.59;104908;1287;97885;-69
2022/06/10 15:08:38;;;;;;;16.40;7.70;;;;;;;23.87;61.30;99042.79;104994;1287;112019;-68
2022/06/10 15:11:11;;;;;;;14.90;7.80;;;;;;;23.86;61.31;99040.23;105005;1287;95383;-69
2022/06/10 15:13:43;;;;;;;16.50;7.90;;;;;;;23.88;61.38;99040.12;105021;1287;106186;-67
2022/06/10 15:16:17;;;;;;;14.60;7.90;;;;;;;23.89;61.16;99038.55;104878;1287;97853;-69
2022/06/10 15:18:49;;;;;;;16.70;8.70;;;;;;;23.89;61.00;99038.63;105213;1285;97955;-70
2022/06/10 15:21:32;;;;;;;16.00;8.60;;;;;;;23.91;60.96;99037.76;105195;1285;111022;-68
2022/06/10 15:24:03;;;;;;;17.40;8.50;;;;;;;23.93;60.84;99039.48;105094;1285;97886;-69
2022/06/10 15:26:40;;;;;;;16.10;8.40;;;;;;;23.93;60.80;99041.17;105135;1285;108362;-69
2022/06/10 15:29:16;;;;;;;14.10;8.10;;;;;;;23.96;60.78;99041.09;105286;1285;97995;-69
2022/06/10 15:31:44;;;;;;;16.00;8.30;;;;;;;23.98;60.47;99041.58;105229;1285;97990;-67
2022/06/10 15:34:16;;;;;;;17.10;8.40;;;;;;;24.00;60.65;99039.52;104907;1287;112106;-71
2022/06/10 15:42:38;;;;;;;14.90;8.10;;;;;;;24.00;60.34;99021.73;105118;1287;97890;-69
2022/06/10 15:45:14;;;;;;;14.20;8.20;;;;;;;24.00;60.21;99013.66;105090;1287;97064;-72
2022/06/10 15:47:42;;;;;;;15.10;9.00;;;;;;;23.97;60.35;99014.12;104840;1288;111509;-69
2022/06/10 15:50:11;;;;;;;15.20;8.40;;;;;;;23.95;60.42;99008.95;105145;1285;97888;-68
2022/06/10 15:52:39;;;;;;;14.50;8.20;;;;;;;23.94;60.25;99008.45;105196;1285;108411;-68
2022/06/10 15:58:23;;;;;;;17.20;8.80;;;;;;;23.94;60.10;99007.20;104353;1287;98439;-67
2022/06/10 16:00:52;;;;;;;15.60;8.10;;;;;;;23.94;59.95;99009.08;105017;1287;110765;-69
2022/06/10 16:03:21;;;;;;;14.60;8.60;;;;;;;23.92;59.90;99009.48;105061;1287;95281;-69
2022/06/10 16:05:53;;;;;;;15.60;8.20;;;;;;;23.91;59.86;99013.27;105125;1287;108375;-69
2022/06/10 16:08:21;;;;;;;16.10;8.40;;;;;;;23.92;59.89;99016.96;105128;1287;98006;-71
2022/06/10 16:10:56;;;;;;;17.20;8.90;;;;;;;23.92;59.71;99020.76;104970;1288;99334;-69
2022/06/10 16:13:45;;;;;;;15.80;8.60;;;;;;;23.93;59.66;99018.05;105075;1287;112754;-70
2022/06/10 16:16:44;;;;;;;15.90;8.20;;;;;;;23.94;59.66;99018.65;105071;1287;99328;-70
2022/06/10 16:19:12;;;;;;;14.00;7.90;;;;;;;23.93;59.56;99015.58;104840;1287;108623;-69
2022/06/10 16:21:40;;;;;;;15.20;8.20;;;;;;;23.92;59.62;99013.45;105023;1287;99388;-69
2022/06/10 16:24:14;;;;;;;13.70;8.10;;;;;;;23.95;59.65;99020.58;105052;1287;99376;-70
2022/06/10 16:26:42;;;;;;;13.00;8.00;;;;;;;23.97;59.58;99022.02;105020;1287;112832;-70
2022/06/10 16:29:29;;;;;;;15.00;8.00;;;;;;;23.97;59.35;99017.41;105105;1288;97677;-68
2022/06/10 16:32:05;;;;;;;17.60;8.50;;;;;;;23.98;59.48;99018.77;105048;1287;107759;-69
2022/06/10 16:34:33;;;;;;;15.90;8.60;;;;;;;23.98;59.28;99021.14;105061;1287;99339;-68
2022/06/10 16:37:04;;;;;;;15.10;8.50;;;;;;;23.98;59.40;99022.36;105107;1288;99331;-69
2022/06/10 16:39:32;;;;;;;16.10;8.60;;;;;;;23.95;59.35;99021.29;105061;1287;113083;-67
2022/06/10 16:42:05;;;;;;;15.20;8.40;;;;;;;23.89;59.33;99024.85;105040;1287;99250;-68
2022/06/10 16:44:41;;;;;;;16.60;9.10;;;;;;;23.86;59.21;99028.59;105062;1287;108423;-68
2022/06/10 16:47:14;;;;;;;15.30;9.20;;;;;;;23.85;59.32;99031.84;105066;1287;99231;-68
2022/06/10 16:49:47;;;;;;;15.90;8.70;;;;;;;23.86;59.23;99036.14;105111;1287;100125;-67
2022/06/10 16:52:19;;;;;;;;;;;;;;;23.89;59.08;99041.98;105099;1287;112800;-69
2022/06/10 16:54:53;;;;;;;14.40;7.80;;;;;;;23.89;59.11;99045.32;105070;1287;99335;-67
2022/06/10 16:57:34;;;;;;;15.30;8.40;;;;;;;23.90;59.15;99051.38;105052;1287;107736;-68
2022/06/10 17:00:08;;;;;;;15.40;8.50;;;;;;;23.92;59.10;99050.80;105005;1287;99229;-69
2022/06/10 17:02:40;;;;;;;12.70;7.30;;;;;;;23.94;59.08;99048.02;104885;1287;99981;-69
2022/06/10 17:05:18;;;;;;;19.90;7.90;;;;;;;23.92;59.05;99043.21;104912;1287;112836;-69
2022/06/10 17:07:49;;;;;;;14.30;7.10;;;;;;;23.85;59.10;99034.55;105169;1287;99958;-69
2022/06/10 17:10:21;;;;;;;14.10;8.10;;;;;;;23.80;59.15;99036.40;104842;1287;108728;-69
2022/06/10 17:13:05;;;;;;;20.10;8.90;;;;;;;23.75;59.16;99028.10;105110;1287;99407;-68
2022/06/10 17:15:38;;;;;;;13.00;7.00;;;;;;;23.69;59.24;99031.85;105121;1287;99243;-68
2022/06/10 17:18:13;;;;;;;14.00;7.90;;;;;;;23.64;59.23;99033.40;105084;1287;111749;-68
2022/06/10 17:20:46;;;;;;;15.30;7.70;;;;;;;23.60;59.17;99032.59;105087;1288;99326;-68
2022/06/10 17:23:20;;;;;;;16.70;8.00;;;;;;;23.56;59.17;99033.85;105130;1287;107770;-70
2022/06/10 17:25:53;;;;;;;15.80;8.00;;;;;;;23.51;59.19;99035.70;105163;1287;99127;-70
2022/06/10 17:28:25;;;;;;;17.70;8.10;;;;;;;23.48;59.21;99044.42;105117;1287;99320;-69
2022/06/10 17:31:01;;;;;;;15.00;7.70;;;;;;;23.42;59.02;99044.27;105092;1287;112811;-72
2022/06/10 17:33:36;;;;;;;13.70;7.40;;;;;;;23.35;59.08;99045.21;105138;1287;99369;-70
2022/06/10 17:36:09;;;;;;;13.30;7.40;;;;;;;23.27;59.17;99047.43;105066;1287;107814;-69
2022/06/10 17:38:43;;;;;;;15.40;7.20;;;;;;;23.23;59.10;99048.52;105178;1286;97671;-68
2022/06/10 17:41:36;;;;;;;16.60;7.30;;;;;;;23.20;59.19;99052.14;105135;1286;99264;-69
2022/06/10 17:44:21;;;;;;;12.70;7.20;;;;;;;23.15;59.18;99053.55;105158;1287;113345;-68
2022/06/10 17:46:53;;;;;;;18.10;7.50;;;;;;;23.08;59.09;99055.90;105098;1287;99368;-69
2022/06/10 17:49:31;;;;;;;12.00;6.40;;;;;;;23.01;59.37;99056.75;105099;1287;108434;-68
2022/06/10 17:52:27;;;;;;;11.60;6.50;;;;;;;22.96;59.06;99058.00;104841;1287;99374;-68
2022/06/10 17:55:00;;;;;;;15.00;6.90;;;;;;;22.90;59.29;99063.08;105098;1286;99128;-69
2022/06/10 17:57:39;;;;;;;13.60;7.10;;;;;;;22.85;59.40;99065.16;105126;1287;113533;-69
2022/06/10 18:00:30;;;;;;;13.90;7.20;;;;;;;22.78;59.35;99071.58;105084;1287;99327;-70
2022/06/10 18:03:04;;;;;;;12.40;6.50;;;;;;;22.73;59.33;99080.39;105138;1287;107636;-69
2022/06/10 18:05:41;;;;;;;12.30;6.70;;;;;;;22.68;59.61;99083.91;105186;1287;99266;-70
2022/06/10 18:08:22;;;;;;;13.30;7.00;;;;;;;22.62;59.71;99093.41;105280;1287;99329;-70
2022/06/10 18:11:01;;;;;;;18.40;8.40;;;;;;;22.54;59.62;99096.73;105069;1287;112829;-70
2022/06/10 18:16:39;;;;;;;18.20;9.00;;;;;;;22.42;59.90;99097.89;105183;1286;108423;-69
2022/06/10 18:19:16;;;;;;;19.80;9.50;;;;;;;22.35;59.94;99101.89;105193;1285;99350;-67
2022/06/10 18:21:48;;;;;;;16.70;8.30;;;;;;;22.30;59.61;99097.30;105145;1286;99353;-69
2022/06/10 18:24:22;;;;;;;17.90;10.30;;;;;;;22.24;59.85;99098.58;105235;1286;114485;-70
2022/06/10 18:26:56;;;;;;;18.40;9.70;;;;;;;22.16;59.98;99104.94;105206;1287;99390;-70
2022/06/10 18:29:43;;;;;;;18.40;9.30;;;;;;;22.09;60.01;99105.30;105268;1287;107820;-69
2022/06/10 18:32:34;;;;;;;17.60;9.10;;;;;;;22.03;59.89;99110.87;105042;1287;96614;-68
2022/06/10 18:35:11;;;;;;;17.90;10.10;;;;;;;21.93;60.05;99116.89;105306;1285;99662;-72
2022/06/10 18:37:43;;;;;;;18.70;9.70;;;;;;;21.86;60.21;99124.94;105268;1286;112976;-74
2022/06/10 18:40:14;;;;;;;19.50;10.30;;;;;;;21.83;60.34;99128.21;105182;1285;99259;-69
2022/06/10 18:42:49;;;;;;;20.80;9.90;;;;;;;21.79;60.24;99133.57;105092;1287;107585;-69
2022/06/10 18:45:19;;;;;;;18.50;10.40;;;;;;;21.76;60.44;99140.64;105091;1287;96714;-70
2022/06/10 18:47:47;;;;;;;16.90;9.60;;;;;;;21.71;60.36;99149.98;105115;1287;99948;-71
2022/06/10 18:50:29;;;;;;;23.00;10.50;;;;;;;21.67;60.56;99163.10;105181;1287;112773;-73
2022/06/10 18:53:04;;;;;;;18.50;9.80;;;;;;;21.63;60.71;99162.70;105156;1287;99450;-72
2022/06/10 18:55:34;;;;;;;16.80;9.70;;;;;;;21.58;60.65;99168.30;104967;1287;107886;-69
2022/06/10 18:58:06;;;;;;;18.40;9.50;;;;;;;21.53;60.73;99175.29;104898;1287;99361;-69
2022/06/10 19:00:40;;;;;;;16.60;9.40;;;;;;;21.49;60.71;99177.92;105213;1287;99343;-69
2022/06/10 19:03:18;;;;;;;19.30;9.20;;;;;;;21.47;60.95;99181.07;105101;1287;112785;-70
2022/06/10 19:05:50;;;;;;;19.30;8.20;;;;;;;21.42;60.93;99189.98;105121;1287;99230;-69
2022/06/10 19:08:21;;;;;;;17.40;8.60;;;;;;;21.38;61.02;99187.58;105090;1287;107750;-70
2022/06/10 19:10:51;;;;;;;18.60;8.60;;;;;;;21.36;61.11;99191.55;105082;1287;96671;-69
2022/06/10 19:13:19;;;;;;;12.80;7.50;;;;;;;21.35;61.30;99190.81;105082;1287;99187;-69
2022/06/10 19:15:55;;;;;;;13.70;7.90;;;;;;;21.33;61.10;99192.45;105107;1287;113479;-69
2022/06/10 19:18:30;;;;;;;14.20;7.70;;;;;;;21.30;61.25;99195.94;105201;1287;97865;-70
2022/06/10 19:20:58;;;;;;;14.90;7.70;;;;;;;21.25;61.09;99206.14;105160;1287;107771;-70
2022/06/10 19:23:32;;;;;;;14.60;7.60;;;;;;;21.19;61.25;99214.05;105164;1287;99280;-70
2022/06/10 19:26:07;;;;;;;14.00;7.60;;;;;;;21.14;61.21;99216.86;105172;1287;96555;-69
2022/06/10 19:28:40;;;;;;;11.50;6.60;;;;;;;21.08;61.38;99218.58;105079;1287;113599;-71
2022/06/10 19:31:26;;;;;;;17.60;7.20;;;;;;;21.05;61.52;99215.98;105155;1287;99247;-70
2022/06/10 19:34:00;;;;;;;12.90;6.60;;;;;;;21.01;61.37;99214.55;105108;1287;107854;-69
2022/06/10 19:36:30;;;;;;;15.10;7.10;;;;;;;20.96;61.48;99217.59;105123;1286;99333;-69
2022/06/10 19:39:05;;;;;;;13.00;6.70;;;;;;;20.93;61.58;99218.23;104824;1287;99243;-70
2022/06/10 19:41:36;;;;;;;11.70;6.30;;;;;;;20.89;61.39;99221.09;104839;1287;112702;-69
2022/06/10 19:46:53;;;;;;;11.40;5.60;;;;;;;20.76;61.45;99210.95;105062;1287;108494;-69
2022/06/10 19:49:29;;;;;;;12.70;6.70;;;;;;;20.71;61.59;99201.06;105114;1287;99466;-69
2022/06/10 19:52:00;;;;;;;14.00;6.90;;;;;;;20.65;61.65;99196.53;105118;1287;99336;-69
2022/06/10 19:54:28;;;;;;;16.30;7.40;;;;;;;20.59;61.72;99198.66;105151;1287;112747;-70
2022/06/10 19:56:59;;;;;;;10.60;6.30;;;;;;;20.52;61.82;99194.70;105159;1287;99253;-69